sensor_id;sensor_type;location;lat;lon;timestamp;temperature;humidity
42683;DHT22;28293;50.930;3.464;2024-01-06T00:02:17;6.90;97.20
42683;DHT22;28293;50.930;3.464;2024-01-06T00:04:43;6.90;97.30
42683;DHT22;28293;50.930;3.464;2024-01-06T00:07:09;6.90;97.30
42683;DHT22;28293;50.930;3.464;2024-01-06T00:09:34;6.90;97.30
42683;DHT22;28293;50.930;3.464;2024-01-06T00:12:00;6.90;97.30
42683;DHT22;28293;50.930;3.464;2024-01-06T00:14:27;6.90;97.30
42683;DHT22;28293;50.930;3.464;2024-01-06T00:16:53;6.90;97.30
42683;DHT22;28293;50.930;3.464;2024-01-06T00:19:18;6.90;97.40
42683;DHT22;28293;50.930;3.464;2024-01-06T00:21:44;7.00;97.50
42683;DHT22;28293;50.930;3.464;2024-01-06T00:24:10;6.90;97.50
42683;DHT22;28293;50.930;3.464;2024-01-06T00:26:36;6.90;97.40
42683;DHT22;28293;50.930;3.464;2024-01-06T00:29:01;6.90;97.40
42683;DHT22;28293;50.930;3.464;2024-01-06T00:31:27;6.90;97.40
42683;DHT22;28293;50.930;3.464;2024-01-06T00:33:52;6.90;97.40
42683;DHT22;28293;50.930;3.464;2024-01-06T00:36:18;6.90;97.40
42683;DHT22;28293;50.930;3.464;2024-01-06T00:38:44;6.90;97.30
42683;DHT22;28293;50.930;3.464;2024-01-06T00:41:09;6.90;97.30
42683;DHT22;28293;50.930;3.464;2024-01-06T00:43:35;6.90;97.10
42683;DHT22;28293;50.930;3.464;2024-01-06T00:46:01;6.90;97.10
42683;DHT22;28293;50.930;3.464;2024-01-06T00:48:26;7.00;97.00
42683;DHT22;28293;50.930;3.464;2024-01-06T00:50:52;6.90;97.00
42683;DHT22;28293;50.930;3.464;2024-01-06T00:53:18;6.90;96.90
42683;DHT22;28293;50.930;3.464;2024-01-06T00:55:43;7.00;96.80
42683;DHT22;28293;50.930;3.464;2024-01-06T00:58:09;6.90;96.80
42683;DHT22;28293;50.930;3.464;2024-01-06T01:00:34;7.00;96.80
42683;DHT22;28293;50.930;3.464;2024-01-06T01:03:00;7.00;96.70
42683;DHT22;28293;50.930;3.464;2024-01-06T01:05:26;7.00;96.70
42683;DHT22;28293;50.930;3.464;2024-01-06T01:07:51;7.00;96.60
42683;DHT22;28293;50.930;3.464;2024-01-06T01:10:17;7.00;96.40
42683;DHT22;28293;50.930;3.464;2024-01-06T01:12:42;7.00;96.40
42683;DHT22;28293;50.930;3.464;2024-01-06T01:15:08;7.00;96.40
42683;DHT22;28293;50.930;3.464;2024-01-06T01:17:34;7.00;96.40
42683;DHT22;28293;50.930;3.464;2024-01-06T01:19:59;7.00;96.30
42683;DHT22;28293;50.930;3.464;2024-01-06T01:22:25;7.00;96.40
42683;DHT22;28293;50.930;3.464;2024-01-06T01:24:51;7.00;96.40
42683;DHT22;28293;50.930;3.464;2024-01-06T01:27:16;7.00;96.40
42683;DHT22;28293;50.930;3.464;2024-01-06T01:29:42;7.00;96.40
42683;DHT22;28293;50.930;3.464;2024-01-06T01:32:07;7.10;96.40
42683;DHT22;28293;50.930;3.464;2024-01-06T01:34:33;7.10;96.40
42683;DHT22;28293;50.930;3.464;2024-01-06T01:37:00;7.10;96.40
42683;DHT22;28293;50.930;3.464;2024-01-06T01:39:25;7.10;96.30
42683;DHT22;28293;50.930;3.464;2024-01-06T01:41:51;7.10;96.30
42683;DHT22;28293;50.930;3.464;2024-01-06T01:44:16;7.10;96.20
42683;DHT22;28293;50.930;3.464;2024-01-06T01:46:42;7.10;96.30
42683;DHT22;28293;50.930;3.464;2024-01-06T01:49:08;7.10;96.30
42683;DHT22;28293;50.930;3.464;2024-01-06T01:51:34;7.10;96.50
42683;DHT22;28293;50.930;3.464;2024-01-06T01:54:05;7.10;96.60
42683;DHT22;28293;50.930;3.464;2024-01-06T01:56:32;7.10;96.80
42683;DHT22;28293;50.930;3.464;2024-01-06T01:59:06;7.10;96.80
42683;DHT22;28293;50.930;3.464;2024-01-06T02:01:34;7.10;96.80
42683;DHT22;28293;50.930;3.464;2024-01-06T02:04:00;7.00;96.80
42683;DHT22;28293;50.930;3.464;2024-01-06T02:06:26;7.10;96.90
42683;DHT22;28293;50.930;3.464;2024-01-06T02:08:52;7.00;97.00
42683;DHT22;28293;50.930;3.464;2024-01-06T02:11:18;7.00;97.00
42683;DHT22;28293;50.930;3.464;2024-01-06T02:13:44;7.00;97.00
42683;DHT22;28293;50.930;3.464;2024-01-06T02:16:09;7.00;96.90
42683;DHT22;28293;50.930;3.464;2024-01-06T02:18:35;7.00;97.00
42683;DHT22;28293;50.930;3.464;2024-01-06T02:21:02;7.00;96.90
42683;DHT22;28293;50.930;3.464;2024-01-06T02:23:28;7.00;96.90
42683;DHT22;28293;50.930;3.464;2024-01-06T02:25:54;7.00;97.00
42683;DHT22;28293;50.930;3.464;2024-01-06T02:28:20;7.00;96.90
42683;DHT22;28293;50.930;3.464;2024-01-06T02:30:46;7.00;96.90
42683;DHT22;28293;50.930;3.464;2024-01-06T02:33:11;7.00;96.80
42683;DHT22;28293;50.930;3.464;2024-01-06T02:35:37;7.00;96.90
42683;DHT22;28293;50.930;3.464;2024-01-06T02:38:03;7.00;96.90
42683;DHT22;28293;50.930;3.464;2024-01-06T02:40:29;7.10;96.90
42683;DHT22;28293;50.930;3.464;2024-01-06T02:42:54;7.00;96.90
42683;DHT22;28293;50.930;3.464;2024-01-06T02:45:20;7.00;96.90
42683;DHT22;28293;50.930;3.464;2024-01-06T02:47:46;7.00;97.00
42683;DHT22;28293;50.930;3.464;2024-01-06T02:50:11;7.00;97.10
42683;DHT22;28293;50.930;3.464;2024-01-06T02:52:37;7.00;97.10
42683;DHT22;28293;50.930;3.464;2024-01-06T02:55:03;7.00;97.10
42683;DHT22;28293;50.930;3.464;2024-01-06T02:57:30;7.00;97.20
42683;DHT22;28293;50.930;3.464;2024-01-06T02:59:55;7.00;97.20
42683;DHT22;28293;50.930;3.464;2024-01-06T03:02:21;7.00;97.30
42683;DHT22;28293;50.930;3.464;2024-01-06T03:04:47;7.00;97.30
42683;DHT22;28293;50.930;3.464;2024-01-06T03:07:13;7.00;97.30
42683;DHT22;28293;50.930;3.464;2024-01-06T03:09:38;7.00;97.40
42683;DHT22;28293;50.930;3.464;2024-01-06T03:12:08;7.00;97.50
42683;DHT22;28293;50.930;3.464;2024-01-06T03:14:37;7.00;97.40
42683;DHT22;28293;50.930;3.464;2024-01-06T03:17:03;7.00;97.50
42683;DHT22;28293;50.930;3.464;2024-01-06T03:19:30;7.00;97.60
42683;DHT22;28293;50.930;3.464;2024-01-06T03:21:56;7.00;97.70
42683;DHT22;28293;50.930;3.464;2024-01-06T03:24:23;7.00;97.70
42683;DHT22;28293;50.930;3.464;2024-01-06T03:26:49;7.10;97.70
42683;DHT22;28293;50.930;3.464;2024-01-06T03:29:14;7.00;97.70
42683;DHT22;28293;50.930;3.464;2024-01-06T03:31:44;7.00;97.80
42683;DHT22;28293;50.930;3.464;2024-01-06T03:34:10;7.10;97.80
42683;DHT22;28293;50.930;3.464;2024-01-06T03:36:39;7.10;97.80
42683;DHT22;28293;50.930;3.464;2024-01-06T03:39:06;7.10;97.80
42683;DHT22;28293;50.930;3.464;2024-01-06T03:41:31;7.10;97.80
42683;DHT22;28293;50.930;3.464;2024-01-06T03:43:57;7.00;97.80
42683;DHT22;28293;50.930;3.464;2024-01-06T03:46:23;7.00;97.80
42683;DHT22;28293;50.930;3.464;2024-01-06T03:48:49;7.00;97.80
42683;DHT22;28293;50.930;3.464;2024-01-06T03:51:14;7.10;97.80
42683;DHT22;28293;50.930;3.464;2024-01-06T03:53:40;7.00;97.80
42683;DHT22;28293;50.930;3.464;2024-01-06T03:56:06;7.00;97.70
42683;DHT22;28293;50.930;3.464;2024-01-06T03:58:32;7.00;97.70
42683;DHT22;28293;50.930;3.464;2024-01-06T04:00:58;7.00;97.70
42683;DHT22;28293;50.930;3.464;2024-01-06T04:03:23;7.00;97.70
42683;DHT22;28293;50.930;3.464;2024-01-06T04:05:49;7.00;97.60
42683;DHT22;28293;50.930;3.464;2024-01-06T04:08:14;7.00;97.60
42683;DHT22;28293;50.930;3.464;2024-01-06T04:10:40;7.00;97.60
42683;DHT22;28293;50.930;3.464;2024-01-06T04:13:07;7.00;97.60
42683;DHT22;28293;50.930;3.464;2024-01-06T04:15:33;7.00;97.60
42683;DHT22;28293;50.930;3.464;2024-01-06T04:18:02;7.00;97.60
42683;DHT22;28293;50.930;3.464;2024-01-06T04:20:31;7.00;97.60
42683;DHT22;28293;50.930;3.464;2024-01-06T04:22:57;7.00;97.60
42683;DHT22;28293;50.930;3.464;2024-01-06T04:25:23;7.00;97.60
42683;DHT22;28293;50.930;3.464;2024-01-06T04:27:48;7.00;97.60
42683;DHT22;28293;50.930;3.464;2024-01-06T04:30:15;7.00;97.50
42683;DHT22;28293;50.930;3.464;2024-01-06T04:32:41;7.00;97.30
42683;DHT22;28293;50.930;3.464;2024-01-06T04:35:07;7.00;97.30
42683;DHT22;28293;50.930;3.464;2024-01-06T04:37:33;7.00;97.30
42683;DHT22;28293;50.930;3.464;2024-01-06T04:39:59;6.90;97.10
42683;DHT22;28293;50.930;3.464;2024-01-06T04:42:24;6.90;97.10
42683;DHT22;28293;50.930;3.464;2024-01-06T04:44:50;6.90;96.90
42683;DHT22;28293;50.930;3.464;2024-01-06T04:47:16;6.90;96.90
42683;DHT22;28293;50.930;3.464;2024-01-06T04:49:42;6.90;96.90
42683;DHT22;28293;50.930;3.464;2024-01-06T04:52:07;6.90;96.80
42683;DHT22;28293;50.930;3.464;2024-01-06T04:54:33;6.90;96.80
42683;DHT22;28293;50.930;3.464;2024-01-06T04:56:59;6.90;96.80
42683;DHT22;28293;50.930;3.464;2024-01-06T04:59:25;6.90;96.70
42683;DHT22;28293;50.930;3.464;2024-01-06T05:01:51;6.90;96.80
42683;DHT22;28293;50.930;3.464;2024-01-06T05:04:17;6.80;96.80
42683;DHT22;28293;50.930;3.464;2024-01-06T05:06:43;6.90;96.80
42683;DHT22;28293;50.930;3.464;2024-01-06T05:09:08;6.90;96.70
42683;DHT22;28293;50.930;3.464;2024-01-06T05:11:34;6.90;96.60
42683;DHT22;28293;50.930;3.464;2024-01-06T05:14:00;6.90;96.60
42683;DHT22;28293;50.930;3.464;2024-01-06T05:16:25;6.90;96.50
42683;DHT22;28293;50.930;3.464;2024-01-06T05:18:51;6.90;96.50
42683;DHT22;28293;50.930;3.464;2024-01-06T05:21:17;6.90;96.60
42683;DHT22;28293;50.930;3.464;2024-01-06T05:23:42;6.90;96.60
42683;DHT22;28293;50.930;3.464;2024-01-06T05:26:08;6.90;96.80
42683;DHT22;28293;50.930;3.464;2024-01-06T05:28:35;6.90;96.80
42683;DHT22;28293;50.930;3.464;2024-01-06T05:31:00;6.90;96.90
42683;DHT22;28293;50.930;3.464;2024-01-06T05:33:26;6.90;96.90
42683;DHT22;28293;50.930;3.464;2024-01-06T05:35:51;6.80;97.10
42683;DHT22;28293;50.930;3.464;2024-01-06T05:38:17;6.80;97.10
42683;DHT22;28293;50.930;3.464;2024-01-06T05:40:43;6.80;97.20
42683;DHT22;28293;50.930;3.464;2024-01-06T05:43:08;6.80;97.30
42683;DHT22;28293;50.930;3.464;2024-01-06T05:45:34;6.80;97.30
42683;DHT22;28293;50.930;3.464;2024-01-06T05:47:59;6.80;97.30
42683;DHT22;28293;50.930;3.464;2024-01-06T05:50:25;6.80;97.30
42683;DHT22;28293;50.930;3.464;2024-01-06T05:52:51;6.80;97.40
42683;DHT22;28293;50.930;3.464;2024-01-06T05:55:17;6.80;97.40
42683;DHT22;28293;50.930;3.464;2024-01-06T05:57:43;6.90;97.50
42683;DHT22;28293;50.930;3.464;2024-01-06T06:00:09;6.90;97.50
42683;DHT22;28293;50.930;3.464;2024-01-06T06:02:36;6.90;97.50
42683;DHT22;28293;50.930;3.464;2024-01-06T06:05:02;6.80;97.50
42683;DHT22;28293;50.930;3.464;2024-01-06T06:07:27;6.90;97.70
42683;DHT22;28293;50.930;3.464;2024-01-06T06:09:53;6.80;97.70
42683;DHT22;28293;50.930;3.464;2024-01-06T06:12:19;6.80;97.80
42683;DHT22;28293;50.930;3.464;2024-01-06T06:14:45;6.80;97.80
42683;DHT22;28293;50.930;3.464;2024-01-06T06:17:10;6.90;97.80
42683;DHT22;28293;50.930;3.464;2024-01-06T06:19:36;6.80;97.90
42683;DHT22;28293;50.930;3.464;2024-01-06T06:22:01;6.80;97.90
42683;DHT22;28293;50.930;3.464;2024-01-06T06:24:27;6.80;97.80
42683;DHT22;28293;50.930;3.464;2024-01-06T06:26:53;6.80;97.80
42683;DHT22;28293;50.930;3.464;2024-01-06T06:29:18;6.80;97.80
42683;DHT22;28293;50.930;3.464;2024-01-06T06:31:46;6.80;97.80
42683;DHT22;28293;50.930;3.464;2024-01-06T06:34:12;6.80;97.80
42683;DHT22;28293;50.930;3.464;2024-01-06T06:36:38;6.80;97.80
42683;DHT22;28293;50.930;3.464;2024-01-06T06:39:03;6.80;97.80
42683;DHT22;28293;50.930;3.464;2024-01-06T06:41:30;6.80;97.90
42683;DHT22;28293;50.930;3.464;2024-01-06T06:43:59;6.70;97.80
42683;DHT22;28293;50.930;3.464;2024-01-06T06:46:25;6.80;97.90
42683;DHT22;28293;50.930;3.464;2024-01-06T06:48:51;6.70;97.80
42683;DHT22;28293;50.930;3.464;2024-01-06T06:51:16;6.70;97.90
42683;DHT22;28293;50.930;3.464;2024-01-06T06:53:42;6.70;97.80
42683;DHT22;28293;50.930;3.464;2024-01-06T06:56:07;6.80;97.80
42683;DHT22;28293;50.930;3.464;2024-01-06T06:58:33;6.80;97.80
42683;DHT22;28293;50.930;3.464;2024-01-06T07:00:59;6.80;97.70
42683;DHT22;28293;50.930;3.464;2024-01-06T07:03:24;6.80;97.70
42683;DHT22;28293;50.930;3.464;2024-01-06T07:05:52;6.70;97.70
42683;DHT22;28293;50.930;3.464;2024-01-06T07:08:17;6.80;97.70
42683;DHT22;28293;50.930;3.464;2024-01-06T07:10:43;6.70;97.70
42683;DHT22;28293;50.930;3.464;2024-01-06T07:13:09;6.70;97.70
42683;DHT22;28293;50.930;3.464;2024-01-06T07:15:35;6.80;97.90
42683;DHT22;28293;50.930;3.464;2024-01-06T07:18:00;6.80;97.90
42683;DHT22;28293;50.930;3.464;2024-01-06T07:20:26;6.80;97.90
42683;DHT22;28293;50.930;3.464;2024-01-06T07:22:51;6.70;98.00
42683;DHT22;28293;50.930;3.464;2024-01-06T07:25:17;6.60;98.10
42683;DHT22;28293;50.930;3.464;2024-01-06T07:27:43;6.70;98.20
42683;DHT22;28293;50.930;3.464;2024-01-06T07:30:09;6.60;98.20
42683;DHT22;28293;50.930;3.464;2024-01-06T07:32:34;6.60;98.20
42683;DHT22;28293;50.930;3.464;2024-01-06T07:35:00;6.70;98.30
42683;DHT22;28293;50.930;3.464;2024-01-06T07:37:25;6.60;98.20
42683;DHT22;28293;50.930;3.464;2024-01-06T07:39:51;6.70;98.30
42683;DHT22;28293;50.930;3.464;2024-01-06T07:42:17;6.60;98.20
42683;DHT22;28293;50.930;3.464;2024-01-06T07:44:43;6.70;98.30
42683;DHT22;28293;50.930;3.464;2024-01-06T07:47:10;6.60;98.30
42683;DHT22;28293;50.930;3.464;2024-01-06T07:49:35;6.70;98.30
42683;DHT22;28293;50.930;3.464;2024-01-06T07:52:01;6.70;98.30
42683;DHT22;28293;50.930;3.464;2024-01-06T07:54:27;6.70;98.30
42683;DHT22;28293;50.930;3.464;2024-01-06T07:56:53;6.70;98.30
42683;DHT22;28293;50.930;3.464;2024-01-06T07:59:19;6.70;98.20
42683;DHT22;28293;50.930;3.464;2024-01-06T08:01:44;6.70;98.30
42683;DHT22;28293;50.930;3.464;2024-01-06T08:04:10;6.60;98.30
42683;DHT22;28293;50.930;3.464;2024-01-06T08:06:36;6.60;98.30
42683;DHT22;28293;50.930;3.464;2024-01-06T08:09:01;6.60;98.30
42683;DHT22;28293;50.930;3.464;2024-01-06T08:11:28;6.60;98.30
42683;DHT22;28293;50.930;3.464;2024-01-06T08:13:54;6.60;98.30
42683;DHT22;28293;50.930;3.464;2024-01-06T08:16:20;6.60;98.40
42683;DHT22;28293;50.930;3.464;2024-01-06T08:18:46;6.70;98.40
42683;DHT22;28293;50.930;3.464;2024-01-06T08:21:12;6.60;98.30
42683;DHT22;28293;50.930;3.464;2024-01-06T08:23:37;6.60;98.30
42683;DHT22;28293;50.930;3.464;2024-01-06T08:26:04;6.60;98.30
42683;DHT22;28293;50.930;3.464;2024-01-06T08:28:30;6.60;98.30
42683;DHT22;28293;50.930;3.464;2024-01-06T08:30:56;6.60;98.30
42683;DHT22;28293;50.930;3.464;2024-01-06T08:33:21;6.60;98.30
42683;DHT22;28293;50.930;3.464;2024-01-06T08:35:47;6.60;98.30
42683;DHT22;28293;50.930;3.464;2024-01-06T08:38:14;6.60;98.30
42683;DHT22;28293;50.930;3.464;2024-01-06T08:40:39;6.60;98.40
42683;DHT22;28293;50.930;3.464;2024-01-06T08:43:05;6.60;98.40
42683;DHT22;28293;50.930;3.464;2024-01-06T08:45:31;6.60;98.40
42683;DHT22;28293;50.930;3.464;2024-01-06T08:47:57;6.60;98.40
42683;DHT22;28293;50.930;3.464;2024-01-06T08:50:22;6.60;98.30
42683;DHT22;28293;50.930;3.464;2024-01-06T08:52:48;6.60;98.30
42683;DHT22;28293;50.930;3.464;2024-01-06T08:55:14;6.60;98.30
42683;DHT22;28293;50.930;3.464;2024-01-06T08:57:40;6.60;98.30
42683;DHT22;28293;50.930;3.464;2024-01-06T09:00:06;6.60;98.30
42683;DHT22;28293;50.930;3.464;2024-01-06T09:02:31;6.60;98.20
42683;DHT22;28293;50.930;3.464;2024-01-06T09:04:57;6.60;98.00
42683;DHT22;28293;50.930;3.464;2024-01-06T09:07:22;6.50;98.00
42683;DHT22;28293;50.930;3.464;2024-01-06T09:09:48;6.50;98.00
42683;DHT22;28293;50.930;3.464;2024-01-06T09:12:14;6.60;98.00
42683;DHT22;28293;50.930;3.464;2024-01-06T09:14:39;6.60;97.90
42683;DHT22;28293;50.930;3.464;2024-01-06T09:17:06;6.50;97.70
42683;DHT22;28293;50.930;3.464;2024-01-06T09:19:31;6.50;97.70
42683;DHT22;28293;50.930;3.464;2024-01-06T09:21:57;6.50;97.70
42683;DHT22;28293;50.930;3.464;2024-01-06T09:24:23;6.60;97.60
42683;DHT22;28293;50.930;3.464;2024-01-06T09:26:48;6.60;97.60
42683;DHT22;28293;50.930;3.464;2024-01-06T09:29:16;6.60;97.50
42683;DHT22;28293;50.930;3.464;2024-01-06T09:31:42;6.60;97.30
42683;DHT22;28293;50.930;3.464;2024-01-06T09:34:09;6.50;97.30
42683;DHT22;28293;50.930;3.464;2024-01-06T09:36:35;6.50;97.40
42683;DHT22;28293;50.930;3.464;2024-01-06T09:39:01;6.60;97.40
42683;DHT22;28293;50.930;3.464;2024-01-06T09:41:27;6.50;97.40
42683;DHT22;28293;50.930;3.464;2024-01-06T09:43:53;6.60;97.40
42683;DHT22;28293;50.930;3.464;2024-01-06T09:46:24;6.60;97.30
42683;DHT22;28293;50.930;3.464;2024-01-06T09:48:52;6.60;97.00
42683;DHT22;28293;50.930;3.464;2024-01-06T09:51:22;6.60;97.00
42683;DHT22;28293;50.930;3.464;2024-01-06T09:56:25;6.60;97.10
42683;DHT22;28293;50.930;3.464;2024-01-06T09:58:51;6.70;96.90
42683;DHT22;28293;50.930;3.464;2024-01-06T10:01:20;6.60;96.70
42683;DHT22;28293;50.930;3.464;2024-01-06T10:03:46;6.60;96.70
42683;DHT22;28293;50.930;3.464;2024-01-06T10:06:16;6.70;96.80
42683;DHT22;28293;50.930;3.464;2024-01-06T10:08:43;6.70;96.80
42683;DHT22;28293;50.930;3.464;2024-01-06T10:11:09;6.70;96.50
42683;DHT22;28293;50.930;3.464;2024-01-06T10:13:37;6.70;96.50
42683;DHT22;28293;50.930;3.464;2024-01-06T10:16:05;6.80;96.30
42683;DHT22;28293;50.930;3.464;2024-01-06T10:18:31;6.90;96.30
42683;DHT22;28293;50.930;3.464;2024-01-06T10:20:58;6.90;96.10
42683;DHT22;28293;50.930;3.464;2024-01-06T10:23:24;6.90;95.90
42683;DHT22;28293;50.930;3.464;2024-01-06T10:25:55;6.90;95.80
42683;DHT22;28293;50.930;3.464;2024-01-06T10:28:21;6.80;95.60
42683;DHT22;28293;50.930;3.464;2024-01-06T10:30:49;6.80;95.70
42683;DHT22;28293;50.930;3.464;2024-01-06T10:33:16;6.90;95.60
42683;DHT22;28293;50.930;3.464;2024-01-06T10:35:42;6.80;95.40
42683;DHT22;28293;50.930;3.464;2024-01-06T10:38:08;6.90;95.60
42683;DHT22;28293;50.930;3.464;2024-01-06T10:40:34;6.90;95.50
42683;DHT22;28293;50.930;3.464;2024-01-06T10:43:00;6.90;95.60
42683;DHT22;28293;50.930;3.464;2024-01-06T10:45:28;6.90;95.50
42683;DHT22;28293;50.930;3.464;2024-01-06T10:47:55;7.00;95.40
42683;DHT22;28293;50.930;3.464;2024-01-06T10:50:22;6.90;95.20
42683;DHT22;28293;50.930;3.464;2024-01-06T10:52:49;6.90;95.20
42683;DHT22;28293;50.930;3.464;2024-01-06T10:55:16;6.90;95.20
42683;DHT22;28293;50.930;3.464;2024-01-06T10:57:46;6.90;95.40
42683;DHT22;28293;50.930;3.464;2024-01-06T11:00:13;6.80;95.40
42683;DHT22;28293;50.930;3.464;2024-01-06T11:02:40;6.80;95.40
42683;DHT22;28293;50.930;3.464;2024-01-06T11:05:07;6.60;94.80
42683;DHT22;28293;50.930;3.464;2024-01-06T11:07:36;6.30;94.90
42683;DHT22;28293;50.930;3.464;2024-01-06T11:10:16;6.30;95.00
42683;DHT22;28293;50.930;3.464;2024-01-06T11:12:42;6.30;95.00
42683;DHT22;28293;50.930;3.464;2024-01-06T11:15:08;6.20;94.90
42683;DHT22;28293;50.930;3.464;2024-01-06T11:17:53;6.20;95.10
42683;DHT22;28293;50.930;3.464;2024-01-06T11:20:19;6.20;95.10
42683;DHT22;28293;50.930;3.464;2024-01-06T11:22:46;6.30;95.20
42683;DHT22;28293;50.930;3.464;2024-01-06T11:25:17;6.50;95.30
42683;DHT22;28293;50.930;3.464;2024-01-06T11:27:44;6.60;95.00
42683;DHT22;28293;50.930;3.464;2024-01-06T11:30:23;6.50;94.70
42683;DHT22;28293;50.930;3.464;2024-01-06T11:32:51;6.50;94.30
42683;DHT22;28293;50.930;3.464;2024-01-06T11:35:19;6.50;94.30
42683;DHT22;28293;50.930;3.464;2024-01-06T11:42:58;6.60;94.40
42683;DHT22;28293;50.930;3.464;2024-01-06T11:45:25;6.60;94.20
42683;DHT22;28293;50.930;3.464;2024-01-06T11:48:15;6.70;94.10
42683;DHT22;28293;50.930;3.464;2024-01-06T11:50:40;6.80;94.10
42683;DHT22;28293;50.930;3.464;2024-01-06T11:53:08;6.80;93.70
42683;DHT22;28293;50.930;3.464;2024-01-06T11:55:35;6.70;92.90
42683;DHT22;28293;50.930;3.464;2024-01-06T11:58:02;6.60;93.10
42683;DHT22;28293;50.930;3.464;2024-01-06T12:00:29;6.70;92.80
42683;DHT22;28293;50.930;3.464;2024-01-06T12:02:59;6.80;92.80
42683;DHT22;28293;50.930;3.464;2024-01-06T12:05:27;6.60;92.50
42683;DHT22;28293;50.930;3.464;2024-01-06T12:08:00;6.70;92.70
42683;DHT22;28293;50.930;3.464;2024-01-06T12:10:27;6.80;92.60
42683;DHT22;28293;50.930;3.464;2024-01-06T12:13:00;6.80;92.40
42683;DHT22;28293;50.930;3.464;2024-01-06T12:15:28;6.90;92.70
42683;DHT22;28293;50.930;3.464;2024-01-06T12:17:54;7.00;92.50
42683;DHT22;28293;50.930;3.464;2024-01-06T12:20:22;7.00;92.10
42683;DHT22;28293;50.930;3.464;2024-01-06T12:22:48;7.10;91.80
42683;DHT22;28293;50.930;3.464;2024-01-06T12:25:14;7.00;91.50
42683;DHT22;28293;50.930;3.464;2024-01-06T12:27:44;7.10;91.70
42683;DHT22;28293;50.930;3.464;2024-01-06T12:30:14;7.10;91.30
42683;DHT22;28293;50.930;3.464;2024-01-06T12:32:45;7.00;91.20
42683;DHT22;28293;50.930;3.464;2024-01-06T12:35:11;7.10;91.30
42683;DHT22;28293;50.930;3.464;2024-01-06T12:37:38;7.10;90.90
42683;DHT22;28293;50.930;3.464;2024-01-06T12:40:04;7.10;90.80
42683;DHT22;28293;50.930;3.464;2024-01-06T12:42:31;7.00;90.80
42683;DHT22;28293;50.930;3.464;2024-01-06T12:44:57;7.00;90.30
42683;DHT22;28293;50.930;3.464;2024-01-06T12:47:22;7.10;90.10
42683;DHT22;28293;50.930;3.464;2024-01-06T12:49:49;7.10;90.10
42683;DHT22;28293;50.930;3.464;2024-01-06T12:52:15;7.00;89.60
42683;DHT22;28293;50.930;3.464;2024-01-06T12:54:41;7.00;89.30
42683;DHT22;28293;50.930;3.464;2024-01-06T12:57:07;7.00;89.00
42683;DHT22;28293;50.930;3.464;2024-01-06T12:59:33;7.00;89.10
42683;DHT22;28293;50.930;3.464;2024-01-06T13:01:59;7.00;89.50
42683;DHT22;28293;50.930;3.464;2024-01-06T13:04:24;7.00;88.90
42683;DHT22;28293;50.930;3.464;2024-01-06T13:06:50;7.00;88.60
42683;DHT22;28293;50.930;3.464;2024-01-06T13:09:16;7.10;88.80
42683;DHT22;28293;50.930;3.464;2024-01-06T13:11:42;7.00;88.80
42683;DHT22;28293;50.930;3.464;2024-01-06T13:14:07;7.00;88.60
42683;DHT22;28293;50.930;3.464;2024-01-06T13:16:33;7.10;88.90
42683;DHT22;28293;50.930;3.464;2024-01-06T13:19:00;7.10;89.00
42683;DHT22;28293;50.930;3.464;2024-01-06T13:21:26;7.10;89.00
42683;DHT22;28293;50.930;3.464;2024-01-06T13:23:53;7.00;88.80
42683;DHT22;28293;50.930;3.464;2024-01-06T13:26:19;7.00;88.80
42683;DHT22;28293;50.930;3.464;2024-01-06T13:28:45;6.90;89.00
42683;DHT22;28293;50.930;3.464;2024-01-06T13:31:11;6.90;88.60
42683;DHT22;28293;50.930;3.464;2024-01-06T13:33:37;6.90;88.70
42683;DHT22;28293;50.930;3.464;2024-01-06T13:36:03;6.90;88.70
42683;DHT22;28293;50.930;3.464;2024-01-06T13:38:31;6.90;89.00
42683;DHT22;28293;50.930;3.464;2024-01-06T13:40:57;6.90;89.00
42683;DHT22;28293;50.930;3.464;2024-01-06T13:43:23;6.90;88.80
42683;DHT22;28293;50.930;3.464;2024-01-06T13:45:48;6.80;89.00
42683;DHT22;28293;50.930;3.464;2024-01-06T13:48:14;6.80;89.10
42683;DHT22;28293;50.930;3.464;2024-01-06T13:50:40;6.80;89.40
42683;DHT22;28293;50.930;3.464;2024-01-06T13:53:05;6.80;89.70
42683;DHT22;28293;50.930;3.464;2024-01-06T13:55:34;6.80;89.80
42683;DHT22;28293;50.930;3.464;2024-01-06T13:57:59;6.90;89.90
42683;DHT22;28293;50.930;3.464;2024-01-06T14:00:25;7.00;89.80
42683;DHT22;28293;50.930;3.464;2024-01-06T14:02:51;7.00;90.10
42683;DHT22;28293;50.930;3.464;2024-01-06T14:05:17;6.90;90.00
42683;DHT22;28293;50.930;3.464;2024-01-06T14:07:45;6.90;90.10
42683;DHT22;28293;50.930;3.464;2024-01-06T14:10:12;6.90;89.80
42683;DHT22;28293;50.930;3.464;2024-01-06T14:12:39;6.80;89.40
42683;DHT22;28293;50.930;3.464;2024-01-06T14:15:06;6.70;89.20
42683;DHT22;28293;50.930;3.464;2024-01-06T14:17:32;6.70;89.30
42683;DHT22;28293;50.930;3.464;2024-01-06T14:19:59;6.80;89.50
42683;DHT22;28293;50.930;3.464;2024-01-06T14:22:25;6.80;89.20
42683;DHT22;28293;50.930;3.464;2024-01-06T14:24:51;6.90;89.30
42683;DHT22;28293;50.930;3.464;2024-01-06T14:27:17;6.80;89.30
42683;DHT22;28293;50.930;3.464;2024-01-06T14:29:43;6.80;89.30
42683;DHT22;28293;50.930;3.464;2024-01-06T14:32:09;6.80;89.20
42683;DHT22;28293;50.930;3.464;2024-01-06T14:34:34;6.70;89.00
42683;DHT22;28293;50.930;3.464;2024-01-06T14:37:00;6.70;89.30
42683;DHT22;28293;50.930;3.464;2024-01-06T14:39:26;6.70;89.60
42683;DHT22;28293;50.930;3.464;2024-01-06T14:41:51;6.70;89.60
42683;DHT22;28293;50.930;3.464;2024-01-06T14:44:17;6.60;89.80
42683;DHT22;28293;50.930;3.464;2024-01-06T14:46:46;6.60;89.60
42683;DHT22;28293;50.930;3.464;2024-01-06T14:49:11;6.60;89.40
42683;DHT22;28293;50.930;3.464;2024-01-06T14:51:37;6.50;89.60
42683;DHT22;28293;50.930;3.464;2024-01-06T14:54:03;6.50;90.00
42683;DHT22;28293;50.930;3.464;2024-01-06T14:56:29;6.50;89.80
42683;DHT22;28293;50.930;3.464;2024-01-06T14:58:56;6.50;90.20
42683;DHT22;28293;50.930;3.464;2024-01-06T15:01:22;6.50;90.30
42683;DHT22;28293;50.930;3.464;2024-01-06T15:03:47;6.50;90.40
42683;DHT22;28293;50.930;3.464;2024-01-06T15:06:13;6.50;90.50
42683;DHT22;28293;50.930;3.464;2024-01-06T15:08:39;6.50;90.50
42683;DHT22;28293;50.930;3.464;2024-01-06T15:11:04;6.40;90.50
42683;DHT22;28293;50.930;3.464;2024-01-06T15:13:32;6.40;90.50
42683;DHT22;28293;50.930;3.464;2024-01-06T15:15:57;6.40;90.70
42683;DHT22;28293;50.930;3.464;2024-01-06T15:18:23;6.40;90.80
42683;DHT22;28293;50.930;3.464;2024-01-06T15:20:49;6.40;90.90
42683;DHT22;28293;50.930;3.464;2024-01-06T15:23:15;6.40;91.20
42683;DHT22;28293;50.930;3.464;2024-01-06T15:25:44;6.30;91.20
42683;DHT22;28293;50.930;3.464;2024-01-06T15:28:09;6.20;91.40
42683;DHT22;28293;50.930;3.464;2024-01-06T15:30:35;6.20;91.60
42683;DHT22;28293;50.930;3.464;2024-01-06T15:33:00;6.20;91.80
42683;DHT22;28293;50.930;3.464;2024-01-06T15:35:26;6.20;92.00
42683;DHT22;28293;50.930;3.464;2024-01-06T15:37:52;6.10;92.10
42683;DHT22;28293;50.930;3.464;2024-01-06T15:40:17;6.20;92.40
42683;DHT22;28293;50.930;3.464;2024-01-06T15:42:43;6.10;92.80
42683;DHT22;28293;50.930;3.464;2024-01-06T15:45:09;6.10;93.00
42683;DHT22;28293;50.930;3.464;2024-01-06T15:47:37;6.10;93.10